Terminal Aerodrome Forecast
Issued by NWS

Home | Current Version | Previous Version | Graphics & Text | Print | Product List | Glossary On
Versions: 1 2 3 4 5 6 7 8 9 10 11 12 13 14 15
000
FTUS43 KGRB 231700 RRA
TAFRHI
TAF
KRHI 231741Z 2318/2418 11004KT P6SM SCT100 OVC250
     FM232100 15007KT P6SM SCT040 BKN090
     FM240300 12005KT P6SM BKN040 OVC070
     FM240700 12007KT P6SM SCT025 OVC040
      TEMPO 2409/2413 4SM -RASN OVC018
     FM241300 12013G22KT 4SM -SHRA BR OVC020
      TEMPO 2413/2415 2SM -RASN=

USA.gov is the U.S. government's official web portal to all federal, state and local government web resources and services.